createdAt,value
2019-03-05T00:00:36.790Z,991.63
2019-03-05T00:01:36.781Z,991.78
2019-03-05T00:02:36.771Z,991.79
2019-03-05T00:03:36.761Z,991.82
2019-03-05T00:04:36.753Z,991.81
2019-03-05T00:05:36.753Z,991.86
2019-03-05T00:06:36.737Z,991.91
2019-03-05T00:07:36.731Z,991.85
2019-03-05T00:08:36.724Z,991.90
2019-03-05T00:09:36.715Z,991.86
2019-03-05T00:10:36.702Z,991.88
2019-03-05T00:11:36.698Z,991.91
2019-03-05T00:12:36.690Z,991.97
2019-03-05T00:13:36.683Z,991.89
2019-03-05T00:14:36.679Z,991.76
2019-03-05T00:15:36.665Z,991.88
2019-03-05T00:16:36.658Z,991.88
2019-03-05T00:17:36.651Z,991.88
2019-03-05T00:18:36.643Z,991.92
2019-03-05T00:19:36.637Z,991.92
2019-03-05T00:20:36.628Z,991.91
2019-03-05T00:21:36.624Z,991.89
2019-03-05T00:22:36.613Z,991.96
2019-03-05T00:23:36.605Z,991.89
2019-03-05T00:24:36.595Z,991.83
2019-03-05T00:25:36.594Z,991.80
2019-03-05T00:26:36.580Z,991.89
2019-03-05T00:27:36.572Z,991.85
2019-03-05T00:28:36.568Z,991.93
2019-03-05T00:29:36.557Z,991.99
2019-03-05T00:30:36.555Z,991.96
2019-03-05T00:31:36.542Z,991.91
2019-03-05T00:32:36.534Z,991.96
2019-03-05T00:33:36.525Z,991.94
2019-03-05T00:34:36.516Z,991.97
2019-03-05T00:35:36.506Z,991.98
2019-03-05T00:36:36.501Z,991.98
2019-03-05T00:37:36.494Z,991.99
2019-03-05T00:38:36.485Z,992.04
2019-03-05T00:39:36.476Z,992.00
2019-03-05T00:40:36.470Z,992.03
2019-03-05T00:41:36.464Z,992.05
2019-03-05T00:42:36.453Z,992.01
2019-03-05T00:43:36.450Z,991.98
2019-03-05T00:44:36.439Z,992.00
2019-03-05T00:45:36.432Z,992.03
2019-03-05T00:46:36.423Z,991.92
2019-03-05T00:47:36.414Z,992.01
2019-03-05T00:48:36.408Z,992.05
2019-03-05T00:49:36.402Z,992.00
2019-03-05T00:50:36.394Z,992.03
2019-03-05T00:51:36.385Z,992.01
2019-03-05T00:52:36.378Z,992.03
2019-03-05T00:53:36.367Z,992.00
2019-03-05T00:54:36.364Z,992.07
2019-03-05T00:55:36.352Z,992.04
2019-03-05T00:56:36.347Z,992.08
2019-03-05T00:57:36.334Z,992.01
2019-03-05T00:58:36.327Z,992.06
2019-03-05T00:59:36.324Z,992.04
2019-03-05T01:00:36.311Z,992.05
2019-03-05T01:01:36.304Z,992.07
2019-03-05T01:02:36.297Z,992.03
2019-03-05T01:03:36.294Z,992.02
2019-03-05T01:04:36.284Z,992.08
2019-03-05T01:05:36.275Z,992.04
2019-03-05T01:06:36.265Z,992.13
2019-03-05T01:07:36.259Z,992.12
2019-03-05T01:08:36.252Z,992.02
2019-03-05T01:09:36.241Z,992.02
2019-03-05T01:10:36.236Z,992.05
2019-03-05T01:11:36.226Z,992.01
2019-03-05T01:12:36.221Z,992.04
2019-03-05T01:13:36.211Z,992.02
2019-03-05T01:14:36.204Z,992.04
2019-03-05T01:15:36.195Z,992.08
2019-03-05T01:16:36.186Z,992.04
2019-03-05T01:17:36.179Z,992.07
2019-03-05T01:18:36.170Z,992.10
2019-03-05T01:19:36.164Z,992.10
2019-03-05T01:20:36.157Z,992.05
2019-03-05T01:21:36.149Z,991.96
2019-03-05T01:22:36.140Z,992.04
2019-03-05T01:23:36.134Z,992.03
2019-03-05T01:24:36.132Z,992.04
2019-03-05T01:25:36.118Z,992.01
2019-03-05T01:26:36.108Z,992.00
2019-03-05T01:27:36.112Z,991.96
2019-03-05T01:28:36.096Z,992.02
2019-03-05T01:29:36.088Z,991.97
2019-03-05T01:30:36.079Z,992.02
2019-03-05T01:31:36.071Z,992.04
2019-03-05T01:32:36.069Z,992.04
2019-03-05T01:33:36.053Z,991.92
2019-03-05T01:34:36.050Z,991.94
2019-03-05T01:35:36.041Z,991.90
2019-03-05T01:36:36.033Z,992.00
2019-03-05T01:37:36.025Z,992.03
2019-03-05T01:38:36.016Z,991.97
2019-03-05T01:39:36.010Z,992.00
2019-03-05T01:40:36.005Z,991.94
2019-03-05T01:41:35.992Z,991.95
2019-03-05T01:42:35.984Z,992.01
2019-03-05T01:43:35.982Z,992.05
2019-03-05T01:44:35.970Z,991.97
2019-03-05T01:45:35.971Z,992.05
2019-03-05T01:46:35.953Z,992.02
2019-03-05T01:47:35.947Z,992.05
2019-03-05T01:48:35.938Z,992.05
2019-03-05T01:49:35.930Z,992.03
2019-03-05T01:50:35.923Z,992.08
2019-03-05T01:51:35.916Z,992.08
2019-03-05T01:52:35.906Z,992.14
2019-03-05T01:53:35.900Z,992.16
2019-03-05T01:54:35.891Z,992.17
2019-03-05T01:55:35.887Z,992.13
2019-03-05T01:56:35.877Z,992.20
2019-03-05T01:57:35.875Z,992.16
2019-03-05T01:58:35.859Z,992.16
2019-03-05T01:59:35.853Z,992.06
2019-03-05T02:00:35.846Z,992.17
2019-03-05T02:01:35.838Z,992.23
2019-03-05T02:02:35.834Z,992.24
2019-03-05T02:03:35.819Z,992.30
2019-03-05T02:04:35.812Z,992.26
2019-03-05T02:05:35.819Z,992.27
2019-03-05T02:06:35.797Z,992.27
2019-03-05T02:07:35.794Z,992.26
2019-03-05T02:08:35.780Z,992.26
2019-03-05T02:09:35.774Z,992.18
2019-03-05T02:10:35.765Z,992.23
2019-03-05T02:11:35.759Z,992.23
2019-03-05T02:12:35.758Z,992.26
2019-03-05T02:13:35.744Z,992.14
2019-03-05T02:14:35.734Z,992.25
2019-03-05T02:15:35.723Z,992.23
2019-03-05T02:16:35.724Z,992.23
2019-03-05T02:17:35.710Z,992.19
2019-03-05T02:18:35.701Z,992.20
2019-03-05T02:19:35.695Z,992.19
2019-03-05T02:20:35.686Z,992.15
2019-03-05T02:21:35.679Z,992.17
2019-03-05T02:22:35.670Z,992.21
2019-03-05T02:23:35.664Z,992.16
2019-03-05T02:24:35.655Z,992.19
2019-03-05T02:25:35.649Z,992.20
2019-03-05T02:26:35.638Z,992.25
2019-03-05T02:27:35.631Z,992.21
2019-03-05T02:28:35.624Z,992.23
2019-03-05T02:29:35.616Z,992.24
2019-03-05T02:30:35.610Z,992.19
2019-03-05T02:31:35.599Z,992.25
2019-03-05T02:32:35.616Z,992.26
2019-03-05T02:33:35.585Z,992.25
2019-03-05T02:34:35.586Z,992.14
2019-03-05T02:35:35.576Z,992.21
2019-03-05T02:36:35.571Z,992.24
2019-03-05T02:37:35.553Z,992.26
2019-03-05T02:38:35.545Z,992.29
2019-03-05T02:39:35.539Z,992.22
2019-03-05T02:40:35.528Z,992.26
2019-03-05T02:41:35.524Z,992.32
2019-03-05T02:42:35.514Z,992.30
2019-03-05T02:43:35.507Z,992.29
2019-03-05T02:44:35.498Z,992.17
2019-03-05T02:45:35.492Z,992.29
2019-03-05T02:46:35.482Z,992.28
2019-03-05T02:47:35.479Z,992.30
2019-03-05T02:48:35.473Z,992.27
2019-03-05T02:49:35.465Z,992.27
2019-03-05T02:50:35.459Z,992.29
2019-03-05T02:51:35.443Z,992.36
2019-03-05T02:52:35.437Z,992.35
2019-03-05T02:53:35.428Z,992.31
2019-03-05T02:54:35.418Z,992.33
2019-03-05T02:55:35.412Z,992.31
2019-03-05T02:56:35.406Z,992.36
2019-03-05T02:57:35.502Z,992.30
2019-03-05T02:58:35.388Z,992.36
2019-03-05T02:59:35.384Z,992.39
2019-03-05T03:01:29.512Z,992.35
2019-03-05T03:02:28.252Z,992.36
2019-03-05T03:03:28.237Z,992.30
2019-03-05T03:05:21.110Z,992.41
2019-03-05T03:06:21.084Z,992.42
2019-03-05T03:08:13.955Z,992.41
2019-03-05T03:09:13.946Z,992.39
2019-03-05T03:11:06.818Z,992.50
2019-03-05T03:12:06.795Z,992.42
2019-03-05T03:13:59.667Z,992.40
2019-03-05T03:14:59.652Z,992.57
2019-03-05T03:16:52.527Z,992.52
2019-03-05T03:17:52.504Z,992.51
2019-03-05T03:19:45.374Z,992.47
2019-03-05T03:20:45.361Z,992.50
2019-03-05T03:22:38.255Z,992.46
2019-03-05T03:23:38.223Z,992.49
2019-03-05T03:24:38.218Z,992.53
2019-03-05T03:25:38.205Z,992.53
2019-03-05T03:26:38.204Z,992.50
2019-03-05T03:27:38.191Z,992.51
2019-03-05T03:28:38.188Z,992.46
2019-03-05T03:29:38.178Z,992.57
2019-03-05T03:30:38.187Z,992.56
2019-03-05T03:31:38.164Z,992.53
2019-03-05T03:32:38.152Z,992.56
2019-03-05T03:33:38.166Z,992.56
2019-03-05T03:34:38.139Z,992.52
2019-03-05T03:35:38.138Z,992.52
2019-03-05T03:36:38.120Z,992.60
2019-03-05T03:37:38.118Z,992.51
2019-03-05T03:38:38.106Z,992.55
2019-03-05T03:39:38.098Z,992.62
2019-03-05T03:40:38.096Z,992.61
2019-03-05T03:41:38.085Z,992.49
2019-03-05T03:42:38.085Z,992.61
2019-03-05T03:43:38.068Z,992.61
2019-03-05T03:44:38.063Z,992.57
2019-03-05T03:45:38.051Z,992.61
2019-03-05T03:46:38.042Z,992.57
2019-03-05T03:47:38.036Z,992.59
2019-03-05T03:48:38.033Z,992.62
2019-03-05T03:49:38.027Z,992.61
2019-03-05T03:50:38.015Z,992.64
2019-03-05T03:51:38.005Z,992.57
2019-03-05T03:52:37.998Z,992.56
2019-03-05T03:53:38.031Z,992.62
2019-03-05T03:54:37.980Z,992.64
2019-03-05T03:55:37.969Z,992.57
2019-03-05T03:56:37.964Z,992.65
2019-03-05T03:57:37.959Z,992.67
2019-03-05T03:58:37.958Z,992.65
2019-03-05T03:59:37.944Z,992.60
2019-03-05T04:00:37.933Z,992.58
2019-03-05T04:01:37.928Z,992.62
2019-03-05T04:02:37.916Z,992.71
2019-03-05T04:03:37.908Z,992.72
2019-03-05T04:04:37.907Z,992.70
2019-03-05T04:05:37.898Z,992.73
2019-03-05T04:06:37.888Z,992.70
2019-03-05T04:07:37.879Z,992.78
2019-03-05T04:08:37.870Z,992.74
2019-03-05T04:09:37.864Z,992.57
2019-03-05T04:10:37.854Z,992.73
2019-03-05T04:11:37.846Z,992.73
2019-03-05T04:12:37.841Z,992.72
2019-03-05T04:13:37.834Z,992.61
2019-03-05T04:14:37.830Z,992.72
2019-03-05T04:15:37.818Z,992.77
2019-03-05T04:16:37.809Z,992.72
2019-03-05T04:17:37.803Z,992.79
2019-03-05T04:18:37.792Z,992.73
2019-03-05T04:19:37.785Z,992.73
2019-03-05T04:20:37.778Z,992.71
2019-03-05T04:21:37.769Z,992.77
2019-03-05T04:22:37.764Z,992.72
2019-03-05T04:23:37.759Z,992.78
2019-03-05T04:24:37.746Z,992.75
2019-03-05T04:25:37.734Z,992.74
2019-03-05T04:26:37.727Z,992.76
2019-03-05T04:27:37.728Z,992.78
2019-03-05T04:28:37.720Z,992.78
2019-03-05T04:29:37.705Z,992.81
2019-03-05T04:30:37.700Z,992.78
2019-03-05T04:31:37.688Z,992.77
2019-03-05T04:32:37.681Z,992.75
2019-03-05T04:33:37.675Z,992.77
2019-03-05T04:34:37.665Z,992.81
2019-03-05T04:35:37.658Z,992.72
2019-03-05T04:36:37.649Z,992.72
2019-03-05T04:37:37.643Z,992.83
2019-03-05T04:38:37.634Z,992.78
2019-03-05T04:39:37.630Z,992.74
2019-03-05T04:40:37.620Z,992.80
2019-03-05T04:41:37.612Z,992.79
2019-03-05T04:42:37.606Z,992.85
2019-03-05T04:43:37.595Z,992.81
2019-03-05T04:44:37.593Z,992.84
2019-03-05T04:45:37.579Z,992.80
2019-03-05T04:46:37.573Z,992.84
2019-03-05T04:47:37.563Z,992.76
2019-03-05T04:48:37.558Z,992.85
2019-03-05T04:49:37.547Z,992.83
2019-03-05T04:50:37.544Z,992.82
2019-03-05T04:51:37.532Z,992.84
2019-03-05T04:52:37.526Z,992.80
2019-03-05T04:53:37.520Z,992.91
2019-03-05T04:54:37.509Z,992.82
2019-03-05T04:55:37.504Z,992.80
2019-03-05T04:56:37.493Z,992.77
2019-03-05T04:57:37.485Z,992.76
2019-03-05T04:58:37.479Z,992.84
2019-03-05T04:59:37.471Z,992.78
2019-03-05T05:00:37.462Z,992.80
2019-03-05T05:01:37.461Z,992.85
2019-03-05T05:02:37.448Z,992.89
2019-03-05T05:03:37.440Z,992.79
2019-03-05T05:04:37.432Z,992.88
2019-03-05T05:05:37.425Z,992.94
2019-03-05T05:06:37.418Z,992.87
2019-03-05T05:07:37.407Z,992.93
2019-03-05T05:08:37.401Z,992.97
2019-03-05T05:09:37.962Z,993.00
2019-03-05T05:10:37.384Z,993.00
2019-03-05T05:11:37.384Z,993.00
2019-03-05T05:12:37.369Z,992.94
2019-03-05T05:13:37.362Z,993.04
2019-03-05T05:14:37.351Z,993.04
2019-03-05T05:15:37.348Z,993.12
2019-03-05T05:16:37.338Z,993.10
2019-03-05T05:17:37.330Z,993.10
2019-03-05T05:18:37.322Z,993.03
2019-03-05T05:19:37.316Z,993.06
2019-03-05T05:20:37.307Z,993.13
2019-03-05T05:21:37.300Z,993.14
2019-03-05T05:22:37.287Z,993.14
2019-03-05T05:23:37.281Z,993.14
2019-03-05T05:24:37.278Z,993.10
2019-03-05T05:25:37.268Z,993.16
2019-03-05T05:26:37.260Z,993.16
2019-03-05T05:27:37.252Z,993.23
2019-03-05T05:28:37.248Z,993.20
2019-03-05T05:29:37.234Z,993.26
2019-03-05T05:30:37.231Z,993.28
2019-03-05T05:31:37.221Z,993.24
2019-03-05T05:32:37.214Z,993.27
2019-03-05T05:33:37.204Z,993.29
2019-03-05T05:34:37.201Z,993.34
2019-03-05T05:35:37.190Z,993.37
2019-03-05T05:36:37.181Z,993.36
2019-03-05T05:37:37.174Z,993.37
2019-03-05T05:38:37.171Z,993.33
2019-03-05T05:39:37.158Z,993.37
2019-03-05T05:40:37.151Z,993.36
2019-03-05T05:41:37.140Z,993.49
2019-03-05T05:42:37.138Z,993.44
2019-03-05T05:43:37.128Z,993.42
2019-03-05T05:44:37.119Z,993.34
2019-03-05T05:45:37.113Z,993.40
2019-03-05T05:46:37.108Z,993.47
2019-03-05T05:47:37.095Z,993.40
2019-03-05T05:48:37.089Z,993.43
2019-03-05T05:49:37.081Z,993.24
2019-03-05T05:50:37.070Z,993.43
2019-03-05T05:51:37.063Z,993.47
2019-03-05T05:52:37.054Z,993.49
2019-03-05T05:53:37.047Z,993.31
2019-03-05T05:54:37.044Z,993.59
2019-03-05T05:55:37.202Z,993.54
2019-03-05T05:56:37.023Z,993.57
2019-03-05T05:57:37.018Z,993.63
2019-03-05T05:58:37.038Z,993.62
2019-03-05T05:59:37.000Z,993.59
2019-03-05T06:00:36.992Z,993.67
2019-03-05T06:01:36.982Z,993.68
2019-03-05T06:02:36.975Z,993.71
2019-03-05T06:03:37.885Z,993.72
2019-03-05T06:04:36.962Z,993.82
2019-03-05T06:05:36.989Z,993.85
2019-03-05T06:06:36.947Z,993.85
2019-03-05T06:07:36.934Z,993.86
2019-03-05T06:08:36.929Z,993.85
2019-03-05T06:09:36.922Z,993.82
2019-03-05T06:10:36.911Z,993.92
2019-03-05T06:11:36.905Z,993.86
2019-03-05T06:12:36.898Z,993.90
2019-03-05T06:13:36.889Z,993.92
2019-03-05T06:14:36.882Z,993.81
2019-03-05T06:15:36.874Z,993.87
2019-03-05T06:16:36.865Z,993.83
2019-03-05T06:17:36.860Z,993.85
2019-03-05T06:18:36.851Z,993.92
2019-03-05T06:19:36.839Z,993.83
2019-03-05T06:20:36.838Z,993.88
2019-03-05T06:21:36.825Z,993.99
2019-03-05T06:22:36.818Z,993.92
2019-03-05T06:23:36.809Z,993.98
2019-03-05T06:24:36.803Z,994.00
2019-03-05T06:25:36.837Z,994.05
2019-03-05T06:26:36.784Z,994.02
2019-03-05T06:27:36.777Z,994.02
2019-03-05T06:28:36.772Z,993.99
2019-03-05T06:29:36.760Z,994.03
2019-03-05T06:30:36.755Z,993.98
2019-03-05T06:31:36.744Z,994.04
2019-03-05T06:32:36.740Z,994.04
2019-03-05T06:33:36.732Z,994.04
2019-03-05T06:34:36.723Z,994.04
2019-03-05T06:35:36.713Z,994.07
2019-03-05T06:36:36.705Z,994.11
2019-03-05T06:37:36.697Z,994.09
2019-03-05T06:38:36.691Z,994.10
2019-03-05T06:39:36.682Z,994.18
2019-03-05T06:40:36.691Z,994.13
2019-03-05T06:41:36.667Z,994.12
2019-03-05T06:42:36.659Z,994.17
2019-03-05T06:43:36.650Z,994.16
2019-03-05T06:44:36.646Z,994.21
2019-03-05T06:45:36.638Z,994.19
2019-03-05T06:46:36.627Z,994.25
2019-03-05T06:47:36.619Z,994.21
2019-03-05T06:48:36.612Z,994.14
2019-03-05T06:49:36.601Z,994.27
2019-03-05T06:50:36.594Z,994.21
2019-03-05T06:51:36.586Z,994.31
2019-03-05T06:52:36.578Z,994.32
2019-03-05T06:53:36.571Z,994.25
2019-03-05T06:54:36.564Z,994.28
2019-03-05T06:55:36.556Z,994.40
2019-03-05T06:56:36.550Z,994.33
2019-03-05T06:57:36.541Z,994.40
2019-03-05T06:58:36.533Z,994.38
2019-03-05T06:59:36.525Z,994.38
2019-03-05T07:00:36.519Z,994.36
2019-03-05T07:01:36.510Z,994.38
2019-03-05T07:02:36.508Z,994.50
2019-03-05T07:03:36.493Z,994.43
2019-03-05T07:04:36.486Z,994.45
2019-03-05T07:05:36.478Z,994.52
2019-03-05T07:06:36.475Z,994.48
2019-03-05T07:07:36.466Z,994.55
2019-03-05T07:08:36.456Z,994.56
2019-03-05T07:09:36.446Z,994.47
2019-03-05T07:10:36.439Z,994.56
2019-03-05T07:11:36.439Z,994.57
2019-03-05T07:12:36.423Z,994.56
2019-03-05T07:13:36.427Z,994.58
2019-03-05T07:14:36.408Z,994.67
2019-03-05T07:15:36.405Z,994.63
2019-03-05T07:16:36.394Z,994.67
2019-03-05T07:17:36.389Z,994.69
2019-03-05T07:18:36.377Z,994.65
2019-03-05T07:19:36.371Z,994.71
2019-03-05T07:20:36.361Z,994.69
2019-03-05T07:21:36.355Z,994.72
2019-03-05T07:22:36.347Z,994.71
2019-03-05T07:23:36.346Z,994.77
2019-03-05T07:24:36.333Z,994.75
2019-03-05T07:25:36.327Z,994.74
2019-03-05T07:26:36.329Z,994.76
2019-03-05T07:27:36.309Z,994.80
2019-03-05T07:28:36.306Z,994.86
2019-03-05T07:29:36.297Z,994.91
2019-03-05T07:30:36.289Z,994.94
2019-03-05T07:31:36.282Z,994.87
2019-03-05T07:32:36.274Z,994.92
2019-03-05T07:33:36.266Z,994.92
2019-03-05T07:34:36.257Z,994.92
2019-03-05T07:35:36.247Z,994.91
2019-03-05T07:36:36.242Z,994.93
2019-03-05T07:37:36.243Z,995.04
2019-03-05T07:38:36.229Z,995.01
2019-03-05T07:39:36.221Z,994.98
2019-03-05T07:40:36.217Z,995.06
2019-03-05T07:41:36.204Z,995.08
2019-03-05T07:42:36.200Z,995.02
2019-03-05T07:43:36.865Z,995.08
2019-03-05T07:44:36.184Z,995.10
2019-03-05T07:45:36.240Z,995.10
2019-03-05T07:46:36.169Z,995.09
2019-03-05T07:47:36.241Z,995.02
2019-03-05T07:48:36.157Z,995.13
2019-03-05T07:49:43.899Z,995.11
2019-03-05T07:50:36.142Z,995.08
2019-03-05T07:51:36.134Z,995.13
2019-03-05T07:52:36.129Z,995.11
2019-03-05T07:53:36.131Z,995.09
2019-03-05T07:54:36.115Z,995.18
2019-03-05T07:55:36.106Z,995.10
2019-03-05T07:56:36.180Z,995.15
2019-03-05T07:57:36.095Z,995.20
2019-03-05T07:58:36.092Z,995.14
2019-03-05T07:59:36.079Z,995.19
2019-03-05T08:00:36.072Z,995.21
2019-03-05T08:01:36.073Z,995.25
2019-03-05T08:02:36.059Z,995.23
2019-03-05T08:03:36.059Z,995.29
2019-03-05T08:04:36.045Z,995.20
2019-03-05T08:05:36.036Z,995.27
2019-03-05T08:06:36.031Z,995.23
2019-03-05T08:07:36.025Z,995.23
2019-03-05T08:08:36.013Z,995.24
2019-03-05T08:09:36.012Z,995.22
2019-03-05T08:10:36.010Z,995.19
2019-03-05T08:11:35.997Z,995.24
2019-03-05T08:12:35.992Z,995.32
2019-03-05T08:13:35.983Z,995.27
2019-03-05T08:14:35.976Z,995.32
2019-03-05T08:15:35.976Z,995.34
2019-03-05T08:16:35.963Z,995.28
2019-03-05T08:17:35.956Z,995.34
2019-03-05T08:18:35.953Z,995.29
2019-03-05T08:19:35.944Z,995.30
2019-03-05T08:20:35.940Z,995.29
2019-03-05T08:21:35.928Z,995.36
2019-03-05T08:22:35.926Z,995.41
2019-03-05T08:23:35.917Z,995.35
2019-03-05T08:24:35.910Z,995.44
2019-03-05T08:25:35.903Z,995.36
2019-03-05T08:26:35.897Z,995.42
2019-03-05T08:27:35.892Z,995.41
2019-03-05T08:28:35.882Z,995.41
2019-03-05T08:29:35.878Z,995.39
2019-03-05T08:30:35.871Z,995.42
2019-03-05T08:31:35.866Z,995.47
2019-03-05T08:32:35.858Z,995.43
2019-03-05T08:33:35.849Z,995.49
2019-03-05T08:34:35.844Z,995.49
2019-03-05T08:35:35.837Z,995.43
2019-03-05T08:36:35.832Z,995.53
2019-03-05T08:37:35.825Z,995.52
2019-03-05T08:38:35.821Z,995.58
2019-03-05T08:39:35.812Z,995.59
2019-03-05T08:40:35.808Z,995.60
2019-03-05T08:41:35.805Z,995.77
2019-03-05T08:42:35.791Z,995.75
2019-03-05T08:43:35.787Z,995.75
2019-03-05T08:44:35.813Z,995.71
2019-03-05T08:45:35.772Z,995.75
2019-03-05T08:46:35.767Z,995.63
2019-03-05T08:47:35.760Z,995.64
2019-03-05T08:48:35.754Z,995.68
2019-03-05T08:49:35.744Z,995.66
2019-03-05T08:50:35.742Z,995.72
2019-03-05T08:51:35.734Z,995.73
2019-03-05T08:52:35.729Z,995.77
2019-03-05T08:53:35.722Z,995.77
2019-03-05T08:54:35.715Z,995.74
2019-03-05T08:55:35.710Z,995.76
2019-03-05T08:56:35.701Z,995.72
2019-03-05T08:57:35.701Z,995.79
2019-03-05T08:58:35.691Z,995.77
2019-03-05T08:59:35.686Z,995.88
2019-03-05T09:00:35.675Z,995.78
2019-03-05T09:01:35.670Z,995.86
2019-03-05T09:02:35.662Z,995.94
2019-03-05T09:03:35.658Z,995.94
2019-03-05T09:04:35.655Z,995.82
2019-03-05T09:05:35.646Z,995.88
2019-03-05T09:06:35.637Z,995.84
2019-03-05T09:07:35.631Z,995.88
2019-03-05T09:08:38.304Z,995.82
2019-03-05T09:09:35.621Z,995.92
2019-03-05T09:10:35.611Z,995.89
2019-03-05T09:11:35.606Z,996.00
2019-03-05T09:12:35.603Z,995.94
2019-03-05T09:13:35.594Z,995.97
2019-03-05T09:14:35.589Z,995.93
2019-03-05T09:15:35.584Z,996.07
2019-03-05T09:16:35.576Z,995.96
2019-03-05T09:17:35.569Z,996.22
2019-03-05T09:18:35.565Z,996.16
2019-03-05T09:19:35.556Z,996.36
2019-03-05T09:20:35.554Z,996.54
2019-03-05T09:21:35.544Z,996.64
2019-03-05T09:22:35.535Z,996.61
2019-03-05T09:23:35.530Z,996.63
2019-03-05T09:24:35.526Z,996.77
2019-03-05T09:25:35.515Z,996.79
2019-03-05T09:26:35.507Z,996.65
2019-03-05T09:27:35.501Z,996.69
2019-03-05T09:28:35.496Z,996.69
2019-03-05T09:29:35.489Z,996.65
2019-03-05T09:30:35.478Z,996.71
2019-03-05T09:31:35.474Z,996.68
2019-03-05T09:32:35.465Z,996.71
2019-03-05T09:33:35.457Z,996.75
2019-03-05T09:34:35.453Z,996.71
2019-03-05T09:35:35.443Z,996.77
2019-03-05T09:36:35.436Z,996.75
2019-03-05T09:37:35.427Z,996.76
2019-03-05T09:38:35.629Z,996.76
2019-03-05T09:39:35.414Z,996.73
2019-03-05T09:40:35.405Z,996.77
2019-03-05T09:41:36.680Z,996.77
2019-03-05T09:42:39.841Z,996.81
2019-03-05T09:43:35.386Z,996.74
2019-03-05T09:44:35.379Z,996.74
2019-03-05T09:45:35.370Z,996.74
2019-03-05T09:46:35.361Z,996.88
2019-03-05T09:47:35.353Z,996.84
2019-03-05T09:48:35.345Z,996.83
2019-03-05T09:49:35.343Z,996.87
2019-03-05T09:50:35.333Z,996.86
2019-03-05T09:51:35.325Z,996.78
2019-03-05T09:52:35.319Z,996.79
2019-03-05T09:53:35.314Z,996.81
2019-03-05T09:54:35.346Z,996.87
2019-03-05T09:55:35.293Z,996.87
2019-03-05T09:56:35.290Z,996.77
2019-03-05T09:57:35.286Z,996.74
2019-03-05T09:58:35.275Z,996.83
2019-03-05T09:59:35.273Z,996.79
2019-03-05T10:00:35.262Z,996.84
2019-03-05T10:01:35.253Z,996.91
2019-03-05T10:02:35.248Z,996.93
2019-03-05T10:03:35.242Z,996.81
2019-03-05T10:04:35.233Z,996.96
2019-03-05T10:05:35.227Z,996.84
2019-03-05T10:06:35.217Z,996.86
2019-03-05T10:07:35.211Z,996.89
2019-03-05T10:08:35.206Z,996.93
2019-03-05T10:09:35.195Z,996.79
2019-03-05T10:10:35.189Z,996.91
2019-03-05T10:11:35.183Z,996.99
2019-03-05T10:12:35.176Z,996.94
2019-03-05T10:13:35.168Z,996.92
2019-03-05T10:14:35.160Z,996.97
2019-03-05T10:15:37.324Z,996.96
2019-03-05T10:16:35.192Z,996.96
2019-03-05T10:17:38.216Z,996.96
2019-03-05T10:18:35.134Z,996.92
2019-03-05T10:19:35.125Z,996.95
2019-03-05T10:20:35.121Z,997.04
2019-03-05T10:21:45.546Z,996.95
2019-03-05T10:22:35.102Z,996.96
2019-03-05T10:23:35.095Z,996.95
2019-03-05T10:24:35.089Z,996.89
2019-03-05T10:25:35.160Z,997.04
2019-03-05T10:26:35.090Z,996.97
2019-03-05T10:27:35.072Z,996.95
2019-03-05T10:28:35.062Z,996.96
2019-03-05T10:29:35.056Z,996.91
2019-03-05T10:30:35.045Z,996.97
2019-03-05T10:31:35.039Z,996.92
2019-03-05T10:32:35.032Z,996.94
2019-03-05T10:33:35.024Z,997.00
2019-03-05T10:34:35.014Z,996.96
2019-03-05T10:35:35.012Z,996.88
2019-03-05T10:36:35.006Z,997.01
2019-03-05T10:37:34.999Z,996.98
2019-03-05T10:38:34.988Z,997.02
2019-03-05T10:39:34.984Z,996.95
2019-03-05T10:40:34.973Z,996.94
2019-03-05T10:41:34.966Z,996.90
2019-03-05T10:42:34.958Z,996.93
2019-03-05T10:43:34.957Z,996.88
2019-03-05T10:44:34.948Z,996.96
2019-03-05T10:45:34.940Z,996.97
2019-03-05T10:46:34.932Z,997.03
2019-03-05T10:47:34.926Z,996.80
2019-03-05T10:48:34.923Z,997.00
2019-03-05T10:49:34.914Z,997.04
2019-03-05T10:50:34.906Z,997.04
2019-03-05T10:51:34.904Z,997.10
2019-03-05T10:52:34.949Z,997.09
2019-03-05T10:53:34.884Z,997.13
2019-03-05T10:54:34.877Z,997.13
2019-03-05T10:55:34.871Z,997.14
2019-03-05T10:56:34.865Z,997.18
2019-03-05T10:57:34.861Z,997.09
2019-03-05T10:58:34.856Z,997.20
2019-03-05T10:59:34.845Z,997.13
2019-03-05T11:00:34.839Z,997.52
2019-03-05T11:01:34.837Z,997.12
2019-03-05T11:02:34.826Z,997.04
2019-03-05T11:03:34.831Z,997.17
2019-03-05T11:04:45.210Z,997.07
2019-03-05T11:05:34.806Z,997.11
2019-03-05T11:06:34.801Z,997.12
2019-03-05T11:07:34.797Z,997.06
2019-03-05T11:08:34.789Z,997.04
2019-03-05T11:09:34.783Z,997.10
2019-03-05T11:10:34.776Z,997.02
2019-03-05T11:11:34.772Z,996.99
2019-03-05T11:12:34.848Z,997.04
2019-03-05T11:13:34.765Z,997.06
2019-03-05T11:14:34.862Z,997.13
2019-03-05T11:15:34.751Z,997.08
2019-03-05T11:16:34.742Z,997.13
2019-03-05T11:17:34.733Z,997.09
2019-03-05T11:18:34.726Z,997.23
2019-03-05T11:19:34.728Z,997.12
2019-03-05T11:20:34.714Z,997.06
2019-03-05T11:21:34.708Z,997.15
2019-03-05T11:22:34.701Z,997.17
2019-03-05T11:23:34.695Z,997.15
2019-03-05T11:24:34.691Z,997.22
2019-03-05T11:25:34.714Z,997.22
2019-03-05T11:26:34.679Z,997.19
2019-03-05T11:27:34.707Z,997.19
2019-03-05T11:28:34.665Z,997.16
2019-03-05T11:29:34.659Z,997.16
2019-03-05T11:30:36.356Z,997.14
2019-03-05T11:31:34.648Z,997.13
2019-03-05T11:32:34.644Z,997.13
2019-03-05T11:33:34.634Z,997.07
2019-03-05T11:34:34.628Z,997.17
2019-03-05T11:35:34.622Z,997.15
2019-03-05T11:36:34.614Z,997.17
2019-03-05T11:37:34.607Z,997.12
2019-03-05T11:38:34.611Z,997.13
2019-03-05T11:39:34.661Z,997.08
2019-03-05T11:40:34.595Z,997.18
2019-03-05T11:41:34.582Z,997.12
2019-03-05T11:42:34.577Z,997.17
2019-03-05T11:43:34.570Z,997.11
2019-03-05T11:44:34.566Z,997.15
2019-03-05T11:45:34.559Z,997.14
2019-03-05T11:46:34.552Z,997.14
2019-03-05T11:47:34.547Z,997.09
2019-03-05T11:48:34.543Z,997.23
2019-03-05T11:49:34.531Z,997.28
2019-03-05T11:50:34.523Z,997.17
2019-03-05T11:51:34.521Z,997.19
2019-03-05T11:52:34.517Z,997.17
2019-03-05T11:53:34.513Z,997.17
2019-03-05T11:54:34.505Z,997.21
2019-03-05T11:55:34.496Z,997.26
2019-03-05T11:56:34.494Z,997.19
2019-03-05T11:57:34.484Z,997.25
2019-03-05T11:58:34.480Z,997.22
2019-03-05T11:59:34.470Z,997.26
2019-03-05T12:00:34.467Z,997.31
2019-03-05T12:01:34.457Z,997.33
2019-03-05T12:02:34.453Z,997.40
2019-03-05T12:03:34.445Z,997.36
2019-03-05T12:04:34.438Z,997.42
2019-03-05T12:05:34.436Z,997.41
2019-03-05T12:06:34.431Z,997.47
2019-03-05T12:07:34.424Z,997.55
2019-03-05T12:08:34.412Z,997.46
2019-03-05T12:09:34.405Z,997.49
2019-03-05T12:10:34.403Z,997.50
2019-03-05T12:11:34.392Z,997.51
2019-03-05T12:12:34.386Z,997.54
2019-03-05T12:13:34.381Z,997.53
2019-03-05T12:14:34.375Z,997.62
2019-03-05T12:15:34.369Z,997.44
2019-03-05T12:16:34.361Z,997.50
2019-03-05T12:17:34.677Z,997.44
2019-03-05T12:18:34.349Z,997.44
2019-03-05T12:19:34.346Z,997.42
2019-03-05T12:20:34.334Z,997.47
2019-03-05T12:21:34.331Z,997.36
2019-03-05T12:22:34.325Z,997.37
2019-03-05T12:23:34.318Z,997.26
2019-03-05T12:24:34.307Z,997.41
2019-03-05T12:25:36.073Z,997.38
2019-03-05T12:26:34.295Z,997.42
2019-03-05T12:27:35.917Z,997.42
2019-03-05T12:28:34.288Z,997.42
2019-03-05T12:29:34.276Z,997.49
2019-03-05T12:30:34.270Z,997.45
2019-03-05T12:31:34.265Z,997.17
2019-03-05T12:32:34.257Z,997.30
2019-03-05T12:33:34.251Z,997.37
2019-03-05T12:34:34.243Z,997.37
2019-03-05T12:35:35.496Z,997.39